createdAt,value
2016-09-04T00:00:43.257Z,990.96
2016-09-04T00:01:43.259Z,990.95
2016-09-04T00:02:43.263Z,990.98
2016-09-04T00:03:43.264Z,990.92
2016-09-04T00:04:43.322Z,990.99
2016-09-04T00:05:43.267Z,990.97
2016-09-04T00:06:43.269Z,990.98
2016-09-04T00:07:43.272Z,990.98
2016-09-04T00:08:43.272Z,990.94
2016-09-04T00:09:43.275Z,990.94
2016-09-04T00:10:43.278Z,990.91
2016-09-04T00:11:43.278Z,990.9
2016-09-04T00:12:43.281Z,990.9
2016-09-04T00:13:43.283Z,990.9
2016-09-04T00:14:43.285Z,990.91
2016-09-04T00:15:43.288Z,990.96
2016-09-04T00:16:43.289Z,990.89
2016-09-04T00:17:43.290Z,990.92
2016-09-04T00:18:43.293Z,990.9
2016-09-04T00:19:43.294Z,990.91
2016-09-04T00:20:43.297Z,990.87
2016-09-04T00:21:43.299Z,990.84
2016-09-04T00:22:43.300Z,990.83
2016-09-04T00:23:43.302Z,990.81
2016-09-04T00:24:43.314Z,990.8
2016-09-04T00:25:43.312Z,990.81
2016-09-04T00:26:43.308Z,990.82
2016-09-04T00:27:43.312Z,990.8
2016-09-04T00:28:43.313Z,990.79
2016-09-04T00:29:43.315Z,990.8
2016-09-04T00:30:43.340Z,990.78
2016-09-04T00:31:43.319Z,990.8
2016-09-04T00:32:43.333Z,990.72
2016-09-04T00:33:43.338Z,990.76
2016-09-04T00:34:43.335Z,990.79
2016-09-04T00:35:43.338Z,990.74
2016-09-04T00:36:43.339Z,990.75
2016-09-04T00:37:43.336Z,990.73
2016-09-04T00:38:43.338Z,990.75
2016-09-04T00:39:43.338Z,990.7
2016-09-04T00:40:43.340Z,990.72
2016-09-04T00:41:43.340Z,990.71
2016-09-04T00:42:43.350Z,990.7
2016-09-04T00:43:43.349Z,990.73
2016-09-04T00:44:43.344Z,990.68
2016-09-04T00:45:43.345Z,990.7
2016-09-04T00:46:43.351Z,990.72
2016-09-04T00:47:43.348Z,990.67
2016-09-04T00:48:43.353Z,990.67
2016-09-04T00:49:43.360Z,990.7
2016-09-04T00:50:43.356Z,990.67
2016-09-04T00:51:43.356Z,990.74
2016-09-04T00:52:43.357Z,990.73
2016-09-04T00:53:43.360Z,990.78
2016-09-04T00:54:43.362Z,990.77
2016-09-04T00:55:43.363Z,990.8
2016-09-04T00:56:43.367Z,990.8
2016-09-04T00:57:43.369Z,990.81
2016-09-04T00:58:43.370Z,990.78
2016-09-04T00:59:43.370Z,990.75
2016-09-04T01:00:43.373Z,990.8
2016-09-04T01:01:43.375Z,990.77
2016-09-04T01:02:43.375Z,990.83
2016-09-04T01:03:43.377Z,990.82
2016-09-04T01:04:43.440Z,990.81
2016-09-04T01:05:43.404Z,990.8
2016-09-04T01:06:43.446Z,990.77
2016-09-04T01:07:43.460Z,990.82
2016-09-04T01:08:43.387Z,990.79
2016-09-04T01:09:43.390Z,990.8
2016-09-04T01:10:43.392Z,990.82
2016-09-04T01:11:43.392Z,990.84
2016-09-04T01:12:43.395Z,990.87
2016-09-04T01:13:43.396Z,990.86
2016-09-04T01:14:43.419Z,990.85
2016-09-04T01:15:43.425Z,990.86
2016-09-04T01:16:43.416Z,990.86
2016-09-04T01:17:43.414Z,990.85
2016-09-04T01:18:43.417Z,990.85
2016-09-04T01:19:43.424Z,990.82
2016-09-04T01:20:43.426Z,990.82
2016-09-04T01:21:43.420Z,990.85
2016-09-04T01:22:43.417Z,990.79
2016-09-04T01:23:43.422Z,990.84
2016-09-04T01:24:43.423Z,990.82
2016-09-04T01:25:43.425Z,990.81
2016-09-04T01:26:43.423Z,990.87
2016-09-04T01:27:43.422Z,990.84
2016-09-04T01:28:43.433Z,990.84
2016-09-04T01:29:43.429Z,990.83
2016-09-04T01:30:43.428Z,990.88
2016-09-04T01:31:43.428Z,990.88
2016-09-04T01:32:43.432Z,990.84
2016-09-04T01:33:43.430Z,990.87
2016-09-04T01:34:43.435Z,990.89
2016-09-04T01:35:43.444Z,990.88
2016-09-04T01:36:43.438Z,990.89
2016-09-04T01:37:43.439Z,990.89
2016-09-04T01:38:43.440Z,990.88
2016-09-04T01:39:43.441Z,990.9
2016-09-04T01:40:43.443Z,990.88
2016-09-04T01:41:43.444Z,990.85
2016-09-04T01:42:43.447Z,990.86
2016-09-04T01:43:43.448Z,990.91
2016-09-04T01:44:43.451Z,990.89
2016-09-04T01:45:43.452Z,990.93
2016-09-04T01:46:43.457Z,990.94
2016-09-04T01:47:43.454Z,990.92
2016-09-04T01:48:43.456Z,990.9
2016-09-04T01:49:43.459Z,990.91
2016-09-04T01:50:43.459Z,990.93
2016-09-04T01:51:43.462Z,990.91
2016-09-04T01:52:43.463Z,990.92
2016-09-04T01:53:43.472Z,990.89
2016-09-04T01:54:43.467Z,990.89
2016-09-04T01:55:43.476Z,990.83
2016-09-04T01:56:43.470Z,990.86
2016-09-04T01:57:43.476Z,990.87
2016-09-04T01:58:43.472Z,990.86
2016-09-04T01:59:43.475Z,990.86
2016-09-04T02:00:43.477Z,990.85
2016-09-04T02:01:43.478Z,990.87
2016-09-04T02:02:43.479Z,990.85
2016-09-04T02:03:43.480Z,990.84
2016-09-04T02:04:43.483Z,990.85
2016-09-04T02:05:43.484Z,990.9
2016-09-04T02:06:43.486Z,990.88
2016-09-04T02:07:43.492Z,990.89
2016-09-04T02:08:43.487Z,990.84
2016-09-04T02:09:43.490Z,990.85
2016-09-04T02:10:43.493Z,990.88
2016-09-04T02:11:43.497Z,990.89
2016-09-04T02:12:43.494Z,990.89
2016-09-04T02:13:43.496Z,990.9
2016-09-04T02:14:43.498Z,990.92
2016-09-04T02:15:43.500Z,990.91
2016-09-04T02:16:43.501Z,990.88
2016-09-04T02:17:43.502Z,990.91
2016-09-04T02:18:43.505Z,990.92
2016-09-04T02:19:43.505Z,990.95
2016-09-04T02:20:43.507Z,990.86
2016-09-04T02:21:43.509Z,990.94
2016-09-04T02:22:43.512Z,990.91
2016-09-04T02:23:43.512Z,990.9
2016-09-04T02:24:43.514Z,990.87
2016-09-04T02:25:43.516Z,990.92
2016-09-04T02:26:43.517Z,990.86
2016-09-04T02:27:43.518Z,990.87
2016-09-04T02:28:43.519Z,990.88
2016-09-04T02:29:43.521Z,990.87
2016-09-04T02:30:43.523Z,990.86
2016-09-04T02:31:43.524Z,990.85
2016-09-04T02:32:43.526Z,990.83
2016-09-04T02:33:43.526Z,990.86
2016-09-04T02:34:43.528Z,990.8
2016-09-04T02:35:43.529Z,990.79
2016-09-04T02:36:43.538Z,990.74
2016-09-04T02:37:43.536Z,990.76
2016-09-04T02:38:43.541Z,990.76
2016-09-04T02:39:43.539Z,990.73
2016-09-04T02:40:43.538Z,990.72
2016-09-04T02:41:43.546Z,990.76
2016-09-04T02:42:43.538Z,990.72
2016-09-04T02:43:43.547Z,990.74
2016-09-04T02:44:43.548Z,990.77
2016-09-04T02:45:43.543Z,990.77
2016-09-04T02:46:43.545Z,990.71
2016-09-04T02:47:43.547Z,990.74
2016-09-04T02:48:43.547Z,990.74
2016-09-04T02:49:43.548Z,990.73
2016-09-04T02:50:43.549Z,990.72
2016-09-04T02:51:43.558Z,990.71
2016-09-04T02:52:43.552Z,990.7
2016-09-04T02:53:43.553Z,990.71
2016-09-04T02:54:43.555Z,990.74
2016-09-04T02:55:43.557Z,990.72
2016-09-04T02:56:43.559Z,990.69
2016-09-04T02:57:43.560Z,990.72
2016-09-04T02:58:43.561Z,990.67
2016-09-04T02:59:43.562Z,990.7
2016-09-04T03:00:43.564Z,990.65
2016-09-04T03:01:43.566Z,990.68
2016-09-04T03:02:43.568Z,990.69
2016-09-04T03:03:43.568Z,990.66
2016-09-04T03:04:43.620Z,990.65
2016-09-04T03:05:43.571Z,990.63
2016-09-04T03:06:43.584Z,990.64
2016-09-04T03:07:43.574Z,990.61
2016-09-04T03:08:43.585Z,990.61
2016-09-04T03:09:43.583Z,990.63
2016-09-04T03:10:43.578Z,990.63
2016-09-04T03:11:43.586Z,990.61
2016-09-04T03:12:43.584Z,990.62
2016-09-04T03:13:43.587Z,990.62
2016-09-04T03:14:43.586Z,990.63
2016-09-04T03:15:43.590Z,990.65
2016-09-04T03:16:43.588Z,990.6
2016-09-04T03:17:43.588Z,990.58
2016-09-04T03:18:43.592Z,990.61
2016-09-04T03:19:43.589Z,990.6
2016-09-04T03:20:43.591Z,990.57
2016-09-04T03:21:43.593Z,990.57
2016-09-04T03:22:43.594Z,990.56
2016-09-04T03:23:43.598Z,990.57
2016-09-04T03:24:43.597Z,990.55
2016-09-04T03:25:43.597Z,990.57
2016-09-04T03:26:43.599Z,990.53
2016-09-04T03:27:43.601Z,990.54
2016-09-04T03:28:43.601Z,990.52
2016-09-04T03:29:43.603Z,990.52
2016-09-04T03:30:43.604Z,990.53
2016-09-04T03:31:43.605Z,990.52
2016-09-04T03:32:43.606Z,990.53
2016-09-04T03:33:43.607Z,990.59
2016-09-04T03:34:43.609Z,990.57
2016-09-04T03:35:43.610Z,990.56
2016-09-04T03:36:43.610Z,990.55
2016-09-04T03:37:43.613Z,990.57
2016-09-04T03:38:43.615Z,990.55
2016-09-04T03:39:43.616Z,990.54
2016-09-04T03:40:43.617Z,990.54
2016-09-04T03:41:43.617Z,990.55
2016-09-04T03:42:43.620Z,990.52
2016-09-04T03:43:43.619Z,990.5
2016-09-04T03:44:43.633Z,990.51
2016-09-04T03:45:43.623Z,990.52
2016-09-04T03:46:43.631Z,990.5
2016-09-04T03:47:43.626Z,990.54
2016-09-04T03:48:43.634Z,990.54
2016-09-04T03:49:43.631Z,990.55
2016-09-04T03:50:43.634Z,990.55
2016-09-04T03:51:43.633Z,990.54
2016-09-04T03:52:43.633Z,990.57
2016-09-04T03:53:43.636Z,990.56
2016-09-04T03:54:43.642Z,990.54
2016-09-04T03:55:43.649Z,990.52
2016-09-04T03:56:43.652Z,990.49
2016-09-04T03:57:43.647Z,990.53
2016-09-04T03:58:43.652Z,990.51
2016-09-04T03:59:43.649Z,990.48
2016-09-04T04:00:43.651Z,990.49
2016-09-04T04:01:43.652Z,990.47
2016-09-04T04:02:43.650Z,990.47
2016-09-04T04:03:43.652Z,990.43
2016-09-04T04:04:43.749Z,990.46
2016-09-04T04:05:43.652Z,990.43
2016-09-04T04:06:43.655Z,990.43
2016-09-04T04:07:43.655Z,990.37
2016-09-04T04:08:43.654Z,990.39
2016-09-04T04:09:43.654Z,990.4
2016-09-04T04:10:43.655Z,990.36
2016-09-04T04:11:43.656Z,990.35
2016-09-04T04:12:43.657Z,990.32
2016-09-04T04:13:43.659Z,990.31
2016-09-04T04:14:43.661Z,990.3
2016-09-04T04:15:43.662Z,990.33
2016-09-04T04:16:43.662Z,990.31
2016-09-04T04:17:43.663Z,990.31
2016-09-04T04:18:43.665Z,990.38
2016-09-04T04:19:43.666Z,990.3
2016-09-04T04:20:43.666Z,990.32
2016-09-04T04:21:43.668Z,990.29
2016-09-04T04:22:43.669Z,990.34
2016-09-04T04:23:43.671Z,990.27
2016-09-04T04:24:43.679Z,990.28
2016-09-04T04:25:43.671Z,990.27
2016-09-04T04:26:43.681Z,990.29
2016-09-04T04:27:43.673Z,990.3
2016-09-04T04:28:43.681Z,990.38
2016-09-04T04:29:43.682Z,990.31
2016-09-04T04:30:43.676Z,990.36
2016-09-04T04:31:43.683Z,990.38
2016-09-04T04:32:43.687Z,990.33
2016-09-04T04:33:43.686Z,990.31
2016-09-04T04:34:43.688Z,990.44
2016-09-04T04:35:43.689Z,990.41
2016-09-04T04:36:43.686Z,990.36
2016-09-04T04:37:43.685Z,990.37
2016-09-04T04:38:43.681Z,990.4
2016-09-04T04:39:43.681Z,990.36
2016-09-04T04:40:43.683Z,990.39
2016-09-04T04:41:43.685Z,990.37
2016-09-04T04:42:43.684Z,990.41
2016-09-04T04:43:43.686Z,990.37
2016-09-04T04:44:43.685Z,990.45
2016-09-04T04:45:43.686Z,990.47
2016-09-04T04:46:43.695Z,990.5
2016-09-04T04:47:43.687Z,990.48
2016-09-04T04:48:43.689Z,990.51
2016-09-04T04:49:43.690Z,990.48
2016-09-04T04:50:43.692Z,990.49
2016-09-04T04:51:43.692Z,990.49
2016-09-04T04:52:43.693Z,990.49
2016-09-04T04:53:43.693Z,990.43
2016-09-04T04:54:43.694Z,990.44
2016-09-04T04:55:43.694Z,990.47
2016-09-04T04:56:43.694Z,990.39
2016-09-04T04:57:43.696Z,990.45
2016-09-04T04:58:43.695Z,990.39
2016-09-04T04:59:43.696Z,990.36
2016-09-04T05:00:43.697Z,990.39
2016-09-04T05:01:43.697Z,990.34
2016-09-04T05:02:43.698Z,990.28
2016-09-04T05:03:43.700Z,990.47
2016-09-04T05:04:43.699Z,990.39
2016-09-04T05:05:43.700Z,990.41
2016-09-04T05:06:43.700Z,990.37
2016-09-04T05:07:43.701Z,990.39
2016-09-04T05:08:43.707Z,990.41
2016-09-04T05:09:43.702Z,990.43
2016-09-04T05:10:43.703Z,990.49
2016-09-04T05:11:43.704Z,990.52
2016-09-04T05:12:43.704Z,990.53
2016-09-04T05:13:43.706Z,990.54
2016-09-04T05:14:43.705Z,990.51
2016-09-04T05:15:43.705Z,990.51
2016-09-04T05:16:43.707Z,990.47
2016-09-04T05:17:43.707Z,990.44
2016-09-04T05:18:43.709Z,990.45
2016-09-04T05:19:43.709Z,990.4
2016-09-04T05:20:43.711Z,990.44
2016-09-04T05:21:43.712Z,990.43
2016-09-04T05:22:43.712Z,990.37
2016-09-04T05:23:43.713Z,990.39
2016-09-04T05:24:43.748Z,990.33
2016-09-04T05:25:43.715Z,990.37
2016-09-04T05:26:43.717Z,990.37
2016-09-04T05:27:43.718Z,990.38
2016-09-04T05:28:43.718Z,990.38
2016-09-04T05:29:43.720Z,990.43
2016-09-04T05:30:43.727Z,990.42
2016-09-04T05:31:43.721Z,990.43
2016-09-04T05:32:43.725Z,990.44
2016-09-04T05:33:43.724Z,990.45
2016-09-04T05:34:43.726Z,990.47
2016-09-04T05:35:43.727Z,990.46
2016-09-04T05:36:43.728Z,990.47
2016-09-04T05:37:43.730Z,990.49
2016-09-04T05:38:43.730Z,990.5
2016-09-04T05:39:43.732Z,990.48
2016-09-04T05:40:43.732Z,990.52
2016-09-04T05:41:43.733Z,990.53
2016-09-04T05:42:43.734Z,990.56
2016-09-04T05:43:43.736Z,990.57
2016-09-04T05:44:43.737Z,990.58
2016-09-04T05:45:43.738Z,990.56
2016-09-04T05:46:43.750Z,990.57
2016-09-04T05:47:43.741Z,990.54
2016-09-04T05:48:43.751Z,990.57
2016-09-04T05:49:43.750Z,990.55
2016-09-04T05:50:43.751Z,990.56
2016-09-04T05:51:43.752Z,990.53
2016-09-04T05:52:43.751Z,990.53
2016-09-04T05:53:43.752Z,990.54
2016-09-04T05:54:43.754Z,990.59
2016-09-04T05:55:43.756Z,990.57
2016-09-04T05:56:43.756Z,990.55
2016-09-04T05:57:43.754Z,990.54
2016-09-04T05:58:43.756Z,990.52
2016-09-04T05:59:43.756Z,990.53
2016-09-04T06:00:43.762Z,990.56
2016-09-04T06:01:43.759Z,990.5
2016-09-04T06:02:43.764Z,990.53
2016-09-04T06:03:43.763Z,990.52
2016-09-04T06:04:44.022Z,990.52
2016-09-04T06:05:43.852Z,990.48
2016-09-04T06:06:43.773Z,990.51
2016-09-04T06:07:43.772Z,990.49
2016-09-04T06:08:43.771Z,990.5
2016-09-04T06:09:43.774Z,990.46
2016-09-04T06:10:43.776Z,990.47
2016-09-04T06:11:43.777Z,990.52
2016-09-04T06:12:43.776Z,990.48
2016-09-04T06:13:43.777Z,990.51
2016-09-04T06:14:43.780Z,990.48
2016-09-04T06:15:43.781Z,990.49
2016-09-04T06:16:43.784Z,990.47
2016-09-04T06:17:43.786Z,990.47
2016-09-04T06:18:43.786Z,990.44
2016-09-04T06:19:43.789Z,990.35
2016-09-04T06:20:43.790Z,990.35
2016-09-04T06:21:43.793Z,990.34
2016-09-04T06:22:43.795Z,990.28
2016-09-04T06:23:43.797Z,990.3
2016-09-04T06:24:43.798Z,990.32
2016-09-04T06:25:43.801Z,990.34
2016-09-04T06:26:43.804Z,990.28
2016-09-04T06:27:43.806Z,990.31
2016-09-04T06:28:43.811Z,990.29
2016-09-04T06:29:43.809Z,990.22
2016-09-04T06:30:43.811Z,990.26
2016-09-04T06:31:43.812Z,990.26
2016-09-04T06:32:43.816Z,990.23
2016-09-04T06:33:43.817Z,990.21
2016-09-04T06:34:43.821Z,990.22
2016-09-04T06:35:43.822Z,990.23
2016-09-04T06:36:43.824Z,990.21
2016-09-04T06:37:43.836Z,990.18
2016-09-04T06:38:43.831Z,990.13
2016-09-04T06:39:43.839Z,990.13
2016-09-04T06:40:43.836Z,990.06
2016-09-04T06:41:43.839Z,990.09
2016-09-04T06:42:43.840Z,990.05
2016-09-04T06:43:43.845Z,990.01
2016-09-04T06:44:43.848Z,990.02
2016-09-04T06:45:43.859Z,990
2016-09-04T06:46:43.853Z,989.97
2016-09-04T06:47:43.860Z,990.01
2016-09-04T06:48:43.861Z,989.97
2016-09-04T06:49:43.864Z,989.94
2016-09-04T06:50:43.862Z,989.97
2016-09-04T06:51:43.867Z,989.97
2016-09-04T06:52:43.868Z,990.02
2016-09-04T06:53:43.871Z,990.01
2016-09-04T06:54:43.874Z,989.97
2016-09-04T06:55:43.878Z,990.01
2016-09-04T06:56:43.879Z,989.94
2016-09-04T06:57:43.880Z,989.96
2016-09-04T06:58:43.883Z,989.9
2016-09-04T06:59:43.886Z,989.94
2016-09-04T07:00:43.888Z,989.87
2016-09-04T07:01:43.892Z,989.89
2016-09-04T07:02:43.894Z,989.91
2016-09-04T07:03:43.900Z,989.86
2016-09-04T07:04:43.948Z,989.87
2016-09-04T07:05:43.902Z,989.89
2016-09-04T07:06:43.910Z,989.83
2016-09-04T07:07:43.907Z,989.84
2016-09-04T07:08:43.908Z,989.86
2016-09-04T07:09:43.910Z,989.9
2016-09-04T07:10:43.915Z,989.89
2016-09-04T07:11:43.916Z,989.9
2016-09-04T07:12:43.917Z,989.89
2016-09-04T07:13:43.921Z,989.93
2016-09-04T07:14:43.924Z,989.91
2016-09-04T07:15:43.925Z,989.97
2016-09-04T07:16:43.937Z,990.02
2016-09-04T07:17:43.934Z,989.95
2016-09-04T07:18:43.936Z,989.94
2016-09-04T07:19:43.935Z,989.97
2016-09-04T07:20:43.938Z,990
2016-09-04T07:21:43.941Z,989.98
2016-09-04T07:22:43.943Z,990
2016-09-04T07:23:43.948Z,990.05
2016-09-04T07:24:43.948Z,989.96
2016-09-04T07:25:43.951Z,989.94
2016-09-04T07:26:43.953Z,989.98
2016-09-04T07:27:43.957Z,989.95
2016-09-04T07:28:43.959Z,989.95
2016-09-04T07:29:43.962Z,989.99
2016-09-04T07:30:43.963Z,989.95
2016-09-04T07:31:43.966Z,989.97
2016-09-04T07:32:43.970Z,989.98
2016-09-04T07:33:43.972Z,990.02
2016-09-04T07:34:43.976Z,989.99
2016-09-04T07:35:43.979Z,989.98
2016-09-04T07:36:43.983Z,990.03
2016-09-04T07:37:43.985Z,990.03
2016-09-04T07:38:43.988Z,990.01
2016-09-04T07:39:43.992Z,990.02
2016-09-04T07:40:44.002Z,989.98
2016-09-04T07:41:43.997Z,989.98
2016-09-04T07:42:44.002Z,990.03
2016-09-04T07:43:44.004Z,989.99
2016-09-04T07:44:44.006Z,990.08
2016-09-04T07:45:44.014Z,990.06
2016-09-04T07:46:44.014Z,990.13
2016-09-04T07:47:44.017Z,990.17
2016-09-04T07:48:44.020Z,990.18
2016-09-04T07:49:44.031Z,990.19
2016-09-04T07:50:44.027Z,990.26
2016-09-04T07:51:44.046Z,990.29
2016-09-04T07:52:44.039Z,990.32
2016-09-04T07:53:44.043Z,990.34
2016-09-04T07:54:44.043Z,990.32
2016-09-04T07:55:44.045Z,990.3
2016-09-04T07:56:44.048Z,990.29
2016-09-04T07:57:44.050Z,990.29
2016-09-04T07:58:44.054Z,990.25
2016-09-04T07:59:44.056Z,990.22
2016-09-04T08:00:44.060Z,990.24
2016-09-04T08:01:44.064Z,990.2
2016-09-04T08:02:44.066Z,990.17
2016-09-04T08:03:44.067Z,990.22
2016-09-04T08:04:44.070Z,990.19
2016-09-04T08:05:44.073Z,990.13
2016-09-04T08:06:44.081Z,990.14
2016-09-04T08:07:44.079Z,990.16
2016-09-04T08:08:44.082Z,990.15
2016-09-04T08:09:44.086Z,990.11
2016-09-04T08:10:44.087Z,990.08
2016-09-04T08:11:44.090Z,990.08
2016-09-04T08:12:44.093Z,990.11
2016-09-04T08:13:44.109Z,990.09
2016-09-04T08:14:44.099Z,990.08
2016-09-04T08:15:44.110Z,990.12
2016-09-04T08:16:44.115Z,990.06
2016-09-04T08:17:44.116Z,990.05
2016-09-04T08:18:44.112Z,990.09
2016-09-04T08:19:44.117Z,990.02
2016-09-04T08:20:44.118Z,990.02
2016-09-04T08:21:44.120Z,990.06
2016-09-04T08:22:44.120Z,990.11
2016-09-04T08:23:44.125Z,990.13
2016-09-04T08:24:44.126Z,990.15
2016-09-04T08:25:44.129Z,990.11
2016-09-04T08:26:44.169Z,990.14
2016-09-04T08:27:44.135Z,990.15
2016-09-04T08:28:44.138Z,990.13
2016-09-04T08:29:44.141Z,990.17
2016-09-04T08:30:44.144Z,990.19
2016-09-04T08:31:44.149Z,990.15
2016-09-04T08:32:44.150Z,990.19
2016-09-04T08:33:44.159Z,990.23
2016-09-04T08:34:44.158Z,990.21
2016-09-04T08:35:44.160Z,990.24
2016-09-04T08:36:44.162Z,990.25
2016-09-04T08:37:44.167Z,990.24
2016-09-04T08:38:44.169Z,990.29
2016-09-04T08:39:44.172Z,990.31
2016-09-04T08:40:44.175Z,990.37
2016-09-04T08:41:44.178Z,990.31
2016-09-04T08:42:44.185Z,990.35
2016-09-04T08:43:44.187Z,990.26
2016-09-04T08:44:44.189Z,990.28
2016-09-04T08:45:44.192Z,990.24
2016-09-04T08:46:44.196Z,990.2
2016-09-04T08:47:44.200Z,990.2
2016-09-04T08:48:44.210Z,990.2
2016-09-04T08:49:44.214Z,990.2
2016-09-04T08:50:44.212Z,990.2
2016-09-04T08:51:44.214Z,990.22
2016-09-04T08:52:44.223Z,990.24
2016-09-04T08:53:44.222Z,990.21
2016-09-04T08:54:44.225Z,990.24
2016-09-04T08:55:44.229Z,990.24
2016-09-04T08:56:44.235Z,990.28
2016-09-04T08:57:44.236Z,990.31
2016-09-04T08:58:44.239Z,990.3
2016-09-04T08:59:44.245Z,990.35
2016-09-04T09:00:44.249Z,990.35
2016-09-04T09:01:44.254Z,990.32
2016-09-04T09:02:44.257Z,990.33
2016-09-04T09:03:44.272Z,990.3
2016-09-04T09:04:44.315Z,990.29
2016-09-04T09:05:44.273Z,990.26
2016-09-04T09:06:44.272Z,990.25
2016-09-04T09:07:44.276Z,990.22
2016-09-04T09:08:44.280Z,990.19
2016-09-04T09:09:44.290Z,990.19
2016-09-04T09:10:44.288Z,990.21
2016-09-04T09:11:44.292Z,990.21
2016-09-04T09:12:44.296Z,990.17
2016-09-04T09:13:44.300Z,990.16
2016-09-04T09:14:44.303Z,990.19
2016-09-04T09:15:44.308Z,990.18
2016-09-04T09:16:44.314Z,990.17
2016-09-04T09:17:44.321Z,990.17
2016-09-04T09:18:44.320Z,990.16
2016-09-04T09:19:44.324Z,990.18
2016-09-04T09:20:44.326Z,990.17
2016-09-04T09:21:44.339Z,990.23
2016-09-04T09:22:44.336Z,990.2
2016-09-04T09:23:44.339Z,990.23
2016-09-04T09:24:44.351Z,990.28
2016-09-04T09:25:44.346Z,990.33
2016-09-04T09:26:44.350Z,990.36
2016-09-04T09:27:44.353Z,990.4
2016-09-04T09:28:44.359Z,990.32
2016-09-04T09:29:44.361Z,990.33
2016-09-04T09:30:44.363Z,990.27
2016-09-04T09:31:44.368Z,990.23
2016-09-04T09:32:44.370Z,990.24
2016-09-04T09:33:44.374Z,990.27
2016-09-04T09:34:44.377Z,990.22
2016-09-04T09:35:44.381Z,990.14
2016-09-04T09:36:44.385Z,990.05
2016-09-04T09:37:44.389Z,990.04
2016-09-04T09:38:44.394Z,990.03
2016-09-04T09:39:44.399Z,990.01
2016-09-04T09:40:44.406Z,990.08
2016-09-04T09:41:44.404Z,990.19
2016-09-04T09:42:44.408Z,990.32
2016-09-04T09:43:44.410Z,990.29
2016-09-04T09:44:44.418Z,990.29
2016-09-04T09:45:44.418Z,990.34
2016-09-04T09:46:44.421Z,990.46
2016-09-04T09:47:44.425Z,990.57
2016-09-04T09:48:44.432Z,990.65
2016-09-04T09:49:44.433Z,990.74
2016-09-04T09:50:44.438Z,990.8
2016-09-04T09:51:44.439Z,990.79
2016-09-04T09:52:44.442Z,990.89
2016-09-04T09:53:44.446Z,990.93
2016-09-04T09:54:44.450Z,990.94
2016-09-04T09:55:44.454Z,990.96
2016-09-04T09:56:44.458Z,990.88
2016-09-04T09:57:44.465Z,990.9
2016-09-04T09:58:44.466Z,990.87
2016-09-04T09:59:44.469Z,990.95
2016-09-04T10:00:44.473Z,990.97
2016-09-04T10:01:44.484Z,990.97
2016-09-04T10:02:44.478Z,991.02
2016-09-04T10:03:44.480Z,991.03
2016-09-04T10:04:44.634Z,991.02
2016-09-04T10:05:44.489Z,991
2016-09-04T10:06:44.492Z,990.96
2016-09-04T10:07:44.496Z,990.91
2016-09-04T10:08:44.498Z,990.88
2016-09-04T10:09:44.501Z,990.83
2016-09-04T10:10:44.506Z,990.83
2016-09-04T10:11:44.510Z,990.76
2016-09-04T10:12:44.512Z,990.75
2016-09-04T10:13:44.517Z,990.72
2016-09-04T10:14:44.520Z,990.73
2016-09-04T10:15:44.532Z,990.73
2016-09-04T10:16:44.535Z,990.67
2016-09-04T10:17:44.531Z,990.66
2016-09-04T10:18:44.534Z,990.66
2016-09-04T10:19:44.538Z,990.67
2016-09-04T10:20:44.540Z,990.64
2016-09-04T10:21:44.544Z,990.64
2016-09-04T10:22:44.557Z,990.62
2016-09-04T10:23:44.556Z,990.64
2016-09-04T10:24:44.556Z,990.57
2016-09-04T10:25:44.557Z,990.62
2016-09-04T10:26:44.561Z,990.63
2016-09-04T10:27:44.565Z,990.61
2016-09-04T10:28:44.571Z,990.62
2016-09-04T10:29:44.571Z,990.63
2016-09-04T10:30:44.574Z,990.61
2016-09-04T10:31:44.578Z,990.64
2016-09-04T10:32:44.580Z,990.64
2016-09-04T10:33:44.583Z,990.66
2016-09-04T10:34:44.592Z,990.64
2016-09-04T10:35:44.593Z,990.63
2016-09-04T10:36:44.593Z,990.62
2016-09-04T10:37:44.598Z,990.65
2016-09-04T10:38:44.600Z,990.64
2016-09-04T10:39:44.604Z,990.66
2016-09-04T10:40:44.607Z,990.57
2016-09-04T10:41:44.613Z,990.56
2016-09-04T10:42:44.613Z,990.51
2016-09-04T10:43:44.616Z,990.53
2016-09-04T10:44:44.620Z,990.48
2016-09-04T10:45:44.626Z,990.52
2016-09-04T10:46:44.630Z,990.45
2016-09-04T10:47:44.630Z,990.45
2016-09-04T10:48:44.633Z,990.38
2016-09-04T10:49:44.651Z,990.43
2016-09-04T10:50:44.641Z,990.39
2016-09-04T10:51:44.644Z,990.39
2016-09-04T10:52:44.648Z,990.34
2016-09-04T10:53:44.652Z,990.33
2016-09-04T10:54:44.654Z,990.33
2016-09-04T10:55:44.658Z,990.26
2016-09-04T10:56:44.666Z,990.28
2016-09-04T10:57:44.666Z,990.24
2016-09-04T10:58:44.692Z,990.2
2016-09-04T10:59:44.673Z,990.26
2016-09-04T11:00:44.681Z,990.23
2016-09-04T11:01:44.680Z,990.23
2016-09-04T11:02:44.690Z,990.23
2016-09-04T11:03:44.687Z,990.33
2016-09-04T11:04:44.689Z,990.3
2016-09-04T11:05:44.693Z,990.26
2016-09-04T11:06:44.698Z,990.2
2016-09-04T11:07:44.707Z,990.13
2016-09-04T11:08:44.704Z,990.24
2016-09-04T11:09:44.706Z,990.21
2016-09-04T11:10:44.710Z,990.22
2016-09-04T11:11:44.715Z,990.17
2016-09-04T11:12:44.720Z,990.21
2016-09-04T11:13:44.721Z,990.22
2016-09-04T11:14:44.726Z,990.19
2016-09-04T11:15:44.736Z,990.2
2016-09-04T11:16:44.742Z,990.22
2016-09-04T11:17:44.739Z,990.24
2016-09-04T11:18:44.742Z,990.21
2016-09-04T11:19:44.745Z,990.19
2016-09-04T11:20:44.748Z,990.12
2016-09-04T11:21:44.751Z,990.09
2016-09-04T11:22:44.755Z,990.06
2016-09-04T11:23:44.759Z,990.08
2016-09-04T11:24:44.763Z,990.04
2016-09-04T11:25:44.766Z,990
2016-09-04T11:26:44.772Z,990.02
2016-09-04T11:27:44.774Z,989.96
2016-09-04T11:28:44.780Z,989.98
2016-09-04T11:29:44.782Z,990
2016-09-04T11:30:44.786Z,989.99
2016-09-04T11:31:44.789Z,989.98
2016-09-04T11:32:44.798Z,989.99
2016-09-04T11:33:44.807Z,990
2016-09-04T11:34:44.814Z,990.03
2016-09-04T11:35:44.813Z,990.03
2016-09-04T11:36:44.812Z,990
2016-09-04T11:37:44.816Z,989.99
2016-09-04T11:38:44.820Z,989.96
2016-09-04T11:39:44.826Z,989.9
2016-09-04T11:40:44.829Z,989.9
2016-09-04T11:41:44.838Z,989.93
2016-09-04T11:42:44.837Z,989.92
2016-09-04T11:43:44.850Z,989.88
2016-09-04T11:44:44.844Z,989.88
2016-09-04T11:45:44.853Z,989.85
2016-09-04T11:46:44.853Z,989.87
2016-09-04T11:47:44.858Z,989.83
2016-09-04T11:48:44.863Z,989.81
2016-09-04T11:49:44.879Z,989.82
2016-09-04T11:50:44.879Z,989.82
2016-09-04T11:51:44.881Z,989.82
2016-09-04T11:52:44.881Z,989.86
2016-09-04T11:53:44.885Z,989.86
2016-09-04T11:54:44.890Z,989.89
2016-09-04T11:55:44.895Z,989.84
2016-09-04T11:56:44.898Z,989.82
2016-09-04T11:57:44.904Z,989.79
2016-09-04T11:58:44.910Z,989.78
2016-09-04T11:59:44.913Z,989.84
2016-09-04T12:00:44.922Z,989.84
2016-09-04T12:01:44.920Z,989.77
2016-09-04T12:02:44.926Z,989.79
2016-09-04T12:03:44.930Z,989.76
2016-09-04T12:04:44.994Z,989.76
2016-09-04T12:05:44.941Z,989.75
2016-09-04T12:06:44.945Z,989.73
2016-09-04T12:07:44.948Z,989.72
2016-09-04T12:08:44.952Z,989.7
2016-09-04T12:09:44.959Z,989.69
2016-09-04T12:10:44.961Z,989.67
2016-09-04T12:11:44.966Z,989.67
2016-09-04T12:12:44.970Z,989.65
2016-09-04T12:13:44.976Z,989.65
2016-09-04T12:14:44.981Z,989.63
2016-09-04T12:15:44.987Z,989.63
2016-09-04T12:16:44.990Z,989.63
2016-09-04T12:17:45.000Z,989.63
2016-09-04T12:18:45.000Z,989.62
2016-09-04T12:19:45.004Z,989.63
2016-09-04T12:20:45.010Z,989.62
2016-09-04T12:21:45.020Z,989.58
2016-09-04T12:22:45.022Z,989.58
2016-09-04T12:23:45.025Z,989.55
2016-09-04T12:24:45.036Z,989.52
2016-09-04T12:25:45.040Z,989.49
2016-09-04T12:26:45.051Z,989.47
2016-09-04T12:27:45.047Z,989.41
2016-09-04T12:28:45.050Z,989.42
2016-09-04T12:29:45.055Z,989.41
2016-09-04T12:30:45.060Z,989.36
2016-09-04T12:31:45.066Z,989.31